Meteo Giornale » Osservazioni meteo Gran Bretagna » Londra City AP

ore: 23:50 - Osservazioni Meteo Londra City AP
Lat. 51° 30' N Lon. 0° 30' W Alt. 5 metri s.l.m.

coperto_pioggia Europe/London

15 °C

Pioggia Debole

Temp. 24 Ore

15 °C

18 °C

Sud/Sud-Est

25.9 Km/h

Dew point 13 °C

Umidità 87 %

Visibilità  5 Km

Il sole sorge alle ore 07:32

Il sole tramonta alle ore 18:01

Data e Ora Cielo e Fenomeni T °C DP °C Um. % Pres. hPa Vis. km Vento km/h
Ieri h: 23:50 coperto_pioggia Pioggia Debole 15 13 87 999 5 S/SE 25.9
Ieri h: 23:20 coperto_pioggia Pioggia Debole 15 12 82 999 5 S/SE 25.9
Ieri h: 22:50 coperto_pioggia Pioggia Debole 15 12 82 1000 10 S 27.8
Ieri h: 22:20 molto_nuvoloso Molto Nuvoloso 16 12 77 1000 10 S 22.2
Ieri h: 21:50 coperto_pioggia Pioggia Debole 17 12 72 1000 10 S 18.5
Ieri h: 21:20 coperto_pioggia Pioggia Debole 17 12 72 1000 10 S 16.7
Ieri h: 20:50 sereno Sereno 17 13 77 1000 10 S 20.3
Ieri h: 20:20 poco_nuvoloso Poco Nuvoloso 17 13 77 1001 10 S 20.3
Ieri h: 19:50 poco_nuvoloso Poco Nuvoloso 17 14 82 1001 7 S 14.8
Ieri h: 19:20 coperto_pioggia Pioggia Debole 17 13 77 1001 10 S/SE 11.1
Ieri h: 18:50 sereno Sereno 16 13 82 1001 10 S/SE 11.1
Ieri h: 18:20 sereno Sereno 17 12 72 1002 10 S 14.8
Ieri h: 17:50 nuvoloso Nuvoloso 17 12 72 1002 10 S 18.5
Ieri h: 17:20 nuvoloso Nuvoloso 17 14 82 1002 10 S/SO 16.7
Ieri h: 16:50 molto_nuvoloso Molto Nuvoloso 17 14 82 1002 10 S/SO 22.2
Ieri h: 16:20 coperto_pioggia Pioggia Debole 17 15 88 1002 8 S/SO 16.7
Ieri h: 15:50 coperto_pioggia Pioggia Debole 17 15 88 1002 8 S 16.7
Ieri h: 15:20 coperto Coperto 17 15 88 1002 8 S 16.7
Ieri h: 14:50 coperto Coperto 18 15 82 1002 10 S 18.5
Ieri h: 14:20 coperto Coperto 18 14 77 1002 10 S 18.5
Ieri h: 13:50 molto_nuvoloso Molto Nuvoloso 18 14 77 1002 10 S/SE 16.7
Ieri h: 13:20 molto_nuvoloso Molto Nuvoloso 17 14 82 1003 10 S/SE 14.8
Ieri h: 12:50 molto_nuvoloso Molto Nuvoloso 17 14 82 1003 10 SE 14.8
Ieri h: 12:20 sereno Sereno 17 14 82 1004 10 SE 20.3
Ieri h: 11:50 foschia Foschia 16 15 93 1004 5 E 11.1
Ieri h: 11:20 foschia Foschia 16 15 93 1004 5 E 11.1
Ieri h: 10:50 foschia Foschia 16 15 93 1005 4 E 14.8
Ieri h: 10:20 foschia Foschia 16 15 93 1005 3 E 13
Ieri h: 09:50 foschia Foschia 16 15 93 1005 2 E/NE 9.3
Ieri h: 09:20 foschia Foschia 16 15 93 1006 2 E/NE 9.3
Ieri h: 08:50 foschia Foschia 16 15 93 1006 2 E 13
Ieri h: 08:20 foschia Foschia 15 15 100 1006 2 E/NE 7.4
Ieri h: 07:50 foschia Foschia 15 14 93 1006 3 E 9.3
Ieri h: 07:20 foschia Foschia 15 14 93 1006 2 E 11.1
Ieri h: 06:50 foschia Foschia 15 14 93 1007 2 E/SE 11.1
Ieri h: 06:20 foschia Foschia 15 14 93 1007 2 E 7.4
Ieri h: 05:50 foschia Foschia 15 14 93 1007 3 E/SE 9.3
Ieri h: 05:20 foschia Foschia 15 14 93 1007 3 E/SE 9.3
Ieri h: 04:50 foschia Foschia 15 14 93 1007 3 N 5.5
Ieri h: 04:20 foschia Foschia 15 14 93 1008 4 E 9.3
Ieri h: 03:50 foschia Foschia 15 14 93 1008 5 E/SE 9.3
Ieri h: 03:20 foschia Foschia 15 14 93 1008 3 N 1.8
Ieri h: 02:50 foschia Foschia 15 14 93 1009 4 SE 7.4
Ieri h: 02:20 foschia Foschia 15 14 93 1009 3 N 3.7
Ieri h: 01:50 foschia Foschia 16 15 93 1009 3 N 5.5
Ieri h: 01:20 foschia Foschia 16 15 93 1009 3 N 3.7
Ieri h: 00:50 coperto_pioggia Pioggia 16 15 93 1009 3 N 5.5